Duckwater, Nevada Weather observations

Data are for 10 minute period ending at time listed.
 Day   Time   Solar   Ave.   Ave.  Ave.  Vector  Max.   Baro.   Total    
  of    of     Rad.   Air    Rel.  Wind   Wind   Wind  Press.  Precip.   
Year   Day            Temp.  Hum.  Speed  Dir.   Gust                    
2015   (PST)   w/m2    F      %     mph   deg.    mph    mb.     in.    
-----------------------------------------------------------------------
 107    7:10    376   44.5    40   10.7   356    14.8   836.9   0.00  
 107    7:20    412   46.2    38    9.7     3    15.3   837.0   0.00  
 107    7:30    446   47.1    37   12.2   354    17.3   836.9   0.00  
 107    7:40    481   48.0    36   10.2   350    16.5   836.8   0.00  
 107    7:50    514   48.8    34   12.1   347    17.6   836.9   0.00  
 107    8:00    547   49.9    33   12.6   351    20.8   836.8   0.00  
 107    8:10    580   50.4    32   13.5   336    18.4   836.7   0.00  
 107    8:20    612   51.3    31   13.3   346    19.5   836.7   0.00  
 107    8:30    641   52.0    30   13.5   352    23.6   836.8   0.00  
 107    8:40    670   52.3    30   12.9   346    20.8   836.8   0.00  
 107    8:50    697   52.9    29   13.7   350    21.3   836.9   0.00  
 107    9:00    724   53.6    28   12.2   354    18.1   837.0   0.00  
 107    9:10    749   54.1    27   12.9   347    19.2   837.0   0.00  
 107    9:20    773   54.4    27   14.2   348    20.2   836.8   0.00  
 107    9:30    796   55.1    26   13.3   352    20.6   836.8   0.00  
 107    9:40    819   55.4    24   11.7   354    20.3   836.7   0.00  
 107    9:50    839   55.9    24   12.8   352    23.5   836.7   0.00  
 107   10:00    858   56.2    23   12.6   347    20.3   836.6   0.00  
 107   10:10    875   57.3    23   11.6   350    20.4   836.5   0.00  
 107   10:20    890   57.0    22   12.1   340    18.4   836.4   0.00  
 107   10:30    904   58.6    21   10.9   358    19.1   836.4   0.00  
 107   10:40    918   59.0    19   12.4   355    18.4   836.4   0.00  
 107   10:50    928   59.3    20   11.2   347    17.5   836.3   0.00  
 107   11:00    938   59.1    19   11.5   348    19.0   836.1   0.00  
 107   11:10    946   59.9    18   11.8   355    20.9   835.9   0.00  
 107   11:20    953   60.3    17   10.9    10    19.1   835.8   0.00  
 107   11:30    956   60.8    17   11.5     2    22.4   835.6   0.00  
 107   11:40    956   61.4    16   10.6     6    18.6   835.5   0.00  
 107   11:50    956   62.0    16   12.7   345    21.0   835.4   0.00  
 107   12:00    957   62.0    15   10.1   356    20.5   835.3   0.00  
 107   12:10    954   62.1    15    9.3    18    18.6   835.1   0.00  
 107   12:20    949   62.6    15   12.2     6    22.8   835.1   0.00  
 107   12:30    942   62.5    15   10.7   360    18.6   834.8   0.00  
 107   12:40    933   62.9    15   13.1   344    22.2   834.7   0.00  
 107   12:50    923   63.0    15    9.9   356    17.2   834.5   0.00  
 107   13:00    912   63.6    15   12.1   327    18.9   834.4   0.00  
 107   13:10    898   64.0    16    9.5   332    18.3   834.3   0.00  
 107   13:20    882   64.8    16   10.5   348    24.7   834.1   0.00  
 107   13:30    865   64.5    15   12.4   344    23.3   834.1   0.00  
 107   13:40    848   64.6    15   10.8   350    17.8   834.0   0.00  
 107   13:50    826   64.7    15   10.6   336    16.6   833.9   0.00  
 107   14:00    806   65.2    15   13.7   342    21.4   833.7   0.00  
 107   14:10    786   65.2    15   12.1   344    22.5   833.7   0.00  
 107   14:20    760   64.8    15    9.4   330    17.6   833.6   0.00  
 107   14:30    735   65.5    14   12.3   338    22.9   833.5   0.00  
 107   14:40    707   65.4    14   10.8   338    20.9   833.4   0.00  
 107   14:50    680   65.9    14   11.6   329    19.4   833.3   0.00  
 107   15:00    650   66.2    14   13.3   355    22.2   833.3   0.00  
 107   15:10    623   65.8    14   12.8   343    21.3   833.3   0.00  
 107   15:20    592   65.7    13   12.2   340    20.2   833.2   0.00  
 107   15:30    559   66.2    13   12.7   346    25.7   833.2   0.00  
 107   15:40    525   65.6    13   13.4   341    20.5   833.2   0.00  
 107   15:50    489   65.7    14   12.4   352    19.3   833.1   0.00  
 107   16:00    455   66.2    14    9.7   340    17.7   833.1   0.00  
 107   16:10    999  999.0   999  999.0   999   999.0   999.0  999.00  
 107   16:20    387   66.1    13   11.6   354    17.1   833.2   0.00  
 107   16:30    351   65.5    13   10.3   346    17.6   833.1   0.00  
 107   16:40    316   65.7    14   10.0   350    18.9   833.2   0.00  
 107   16:50    281   65.5    14   10.2   340    16.4   833.1   0.00  
 107   17:00    248   65.0    14   10.9   342    17.0   833.1   0.00  
 107   17:10    213   64.5    14   11.9   336    17.3   833.1   0.00  
 107   17:20    181   64.0    14   12.0   334    18.9   833.0   0.00  
 107   17:30    150   63.5    15   11.8   340    19.1   833.1   0.00  
 107   17:40    118   63.0    15   12.5   342    17.5   833.2   0.00  
 107   17:50     81   62.5    15   11.9   340    19.6   833.2   0.00  
 107   18:00     46   61.8    15   11.4   345    17.3   833.3   0.00  
 107   18:10     17   60.8    15    8.6   343    13.0   833.4   0.00  
 107   18:20      8   59.4    18    9.4   341    14.5   833.6   0.00  
 107   18:30      4   58.5    19    9.4   332    14.5   833.6   0.00  
 107   18:40      0   57.8    19    9.4   337    16.1   833.7   0.00  
 107   18:50      0   56.8    20    9.1   350    12.5   833.8   0.00  
 107   19:00      0   55.2    21    6.9   360     9.8   833.9   0.00  
 107   19:10      0   53.7    22    6.8     7     9.4   834.0   0.00  
 107   19:20      0   53.2    23    7.3     6    10.2   834.1   0.00  
 107   19:30      0   52.8    23    7.0     9    10.2   834.2   0.00  
 107   19:40      0   52.7    23    6.4     3    10.2   834.4   0.00  
 107   19:50      0   51.7    24    6.2   354     8.4   834.5   0.00  
 107   20:00      0   50.1    26    5.9   353     7.9   834.7   0.00  
 107   20:10      0   49.5    26    6.1   357     7.9   834.7   0.00  
 107   20:20      0   49.5    26    6.6   353     8.7   834.8   0.00  
 107   20:30      0   48.4    27    6.1   354     8.4   834.8   0.00  
 107   20:40      0   48.1    28    6.1   349     7.4   835.0   0.00  
 107   20:50      0   48.1    28    7.5   352     9.3   835.0   0.00  
 107   21:00      0   47.2    28    6.5   359     8.0   835.0   0.00  
 107   21:10      0   47.8    28    5.5   356     6.9   835.0   0.00  
 107   21:20      0   47.9    28    5.5   354     7.2   835.0   0.00  
 107   21:30      0   47.1    29    6.2   353     7.7   835.0   0.00  
 107   21:40      0   46.5    30    5.3   358     6.4   835.1   0.00  
 107   21:50      0   46.5    30    4.7   352     5.8   835.0   0.00  
 107   22:00      0   44.8    31    4.0     6     5.6   835.0   0.00  
 107   22:10      0   43.4    32    3.5     0     5.2   835.0   0.00  
 107   22:20      0   41.9    34    1.2   290     3.2   835.1   0.00  
 107   22:30      0   40.0    36    1.4    49     3.4   835.2   0.00  
 107   22:40      0   40.6    35    3.1    58     4.6   835.2   0.00  
 107   22:50      0   40.3    36    0.9   354     3.7   835.2   0.00  
 107   23:00      0   41.3    35    4.6    15     8.9   835.3   0.00  
 107   23:10      0   43.6    32    6.5     3     9.0   835.3   0.00  
 107   23:20      0   45.3    31    6.5     9    10.9   835.3   0.00  
 107   23:30      0   46.0    30    7.0     9     9.6   835.3   0.00  
 107   23:40      0   45.1    31    6.0     0     9.2   835.3   0.00  
 107   23:50      0   44.6    32    7.1   358    11.3   835.3   0.00  
 108    0:00      0   45.4    31    7.0   358     9.3   835.1   0.00  
 108    0:10      0   45.0    32    5.5   354     7.8   835.2   0.00  
 108    0:20      0   43.2    33    7.5   347     9.6   835.1   0.00  
 108    0:30      0   43.6    32    7.6   350    10.4   835.0   0.00  
 108    0:40      0   40.4    36    5.0   324     7.9   835.0   0.00  
 108    0:50      0   38.2    40    3.7   322     6.2   835.0   0.00  
 108    1:00      0   38.4    39    4.7   326     7.5   834.9   0.00  
 108    1:10      0   38.4    38    6.4   348     9.1   834.9   0.00  
 108    1:20      0   39.4    37    4.5   355     8.0   834.8   0.00  
 108    1:30      0   39.8    37    6.1     1     8.6   834.8   0.00  
 108    1:40      0   40.0    36    5.4     8     7.0   834.7   0.00  
 108    1:50      0   40.0    36    6.3     5    10.0   834.7   0.00  
 108    2:00      0   40.2    36    7.9   353    11.4   834.6   0.00  
 108    2:10      0   39.2    37    7.5   348    11.0   834.7   0.00  
 108    2:20      0   38.4    38    7.4   341    10.4   834.6   0.00  
 108    2:30      0   36.4    41    6.7   333     9.3   834.6   0.00  
 108    2:40      0   36.1    41    4.5   318     8.4   834.7   0.00  
 108    2:50      0   36.0    41    3.2   315     5.8   834.7   0.00  
 108    3:00      0   35.6    42    3.6   306     7.0   834.7   0.00  
 108    3:10      0   34.9    43    2.1   346     4.7   834.8   0.00  
 108    3:20      0   34.6    42    3.8   354     6.6   834.8   0.00  
 108    3:30      0   33.6    44    2.4   338     4.9   834.7   0.00  
 108    3:40      0   32.6    46    2.9   316     5.5   834.7   0.00  
 108    3:50      0   31.8    47    5.2   306     7.2   834.7   0.00  
 108    4:00      0   32.1    46    3.9    28     8.6   834.7   0.00  
 108    4:10      0   32.6    46    2.4    69     7.5   834.7   0.00  
 108    4:20      0   33.5    44    3.0   328     6.4   834.8   0.00  
 108    4:30      0   33.1    45    0.2    24     1.6   835.0   0.00  
 108    4:40      0   32.7    46    1.5   267     3.3   835.0   0.00  
 108    4:50      0   32.8    46    0.9   280     3.2   835.0   0.00  
 108    5:00      3   33.5    44    5.0   296     8.1   835.1   0.00  
 108    5:10      5   33.3    44    2.5   315     5.3   835.1   0.00  
 108    5:20      8   33.5    43    1.3     7     3.5   835.2   0.00  
 108    5:30     38   34.6    42    3.3    13     4.3   835.3   0.00  
 108    5:40     76   35.8    40    3.2    14     4.8   835.4   0.00  
 108    5:50    115   36.9    39    3.4    15     5.3   835.5   0.00  
 108    6:00    147   38.1    38    4.1    28     6.7   835.5   0.00  
 108    6:10    177   39.8    35    4.2    17     6.0   835.5   0.00  
 108    6:20    209   41.8    34    4.3    10     6.0   835.5   0.00  
 108    6:30    242   43.7    32    4.0   330     5.8   835.5   0.00  
 108    6:40    277   45.9    31    2.5   333     4.2   835.5   0.00  
 108    6:50    312   47.7    31    3.2   264     4.7   835.5   0.00  
 108    7:00    346   48.8    31    2.8   201     4.4   835.7   0.00  

Return to Duckwater graphs page.


Western Regional Climate Center,wrcc@dri.edu